Startpagina
METAR-TAF:

METAR-TAF

Vliegvelden :

Capo Mele

Andora, Italië

breedte: 43-57N, lengte: 008-10E, hoogte: 220 m

Actueel weer

Dit bericht is 1 uur en het 13 minuten geleden gemaakt, om 18:55 UTC
Wind 28 kt uit het zuidwesten
Temperatuur 19°C
Vochtigheid 94%
Druk 1005 hPa
Zicht 10 km of meer
Verspreide wolken op 2000 ft, Stapelwolken.

METAR: LIMU 031855Z 23028KT 9999 SCT020TCU 19/18 Q1005 RMK BKN SCT053 QUK 3 QUL 1 S VIS MAR 20 KM VIS MIN 9999

Tijdstip: 22:08 (20:08 UTC)


TAF: ontbreekt

Waarnemingen en weersverwachtingen van meer dan 4000 vliegvelden (METAR en TAF).

De beschikbare stations zijn de gele en rode punten op de kaart.

Ga met uw muis naar het station om de naam te zien.

Klik dan om waarnemingen en weersverwachtingen te zien.

kaart wijzigen: klik op de groene knoppen met een zwart kruis om in te zoomen, op de groene knop met een streepje om uit te zoomen of op de groene pijlen voor aangrenzende kaarten.


METAR-TAF: